< Typhoon 199418 1994 Season Typhoon 199420 >
Typhoon 199419 (IVY)
General InformationTrack Information on Google MapsDetailed Wind InformationList of All Images || Disaster Info.ResourceGoogle EarthGE AnimationAtom FeedGeoJSON
Detalied Best Track (Time Zone = UTC)
Year Month Day Hour Lat. Long. Pressure (hPa) Wind (kt) Class Image Chart
1994 8 27 12 19.5 162.0 1006 0 2 Image Chart
1994 8 27 18 20.0 162.4 1004 0 2 Image Chart
1994 8 28 00 20.7 162.8 1002 0 2 Image Chart
1994 8 28 06 21.3 163.2 998 35 3 Image Chart
1994 8 28 12 21.9 163.5 994 40 3 Image Chart
1994 8 28 18 22.6 163.7 994 40 3 Image Chart
1994 8 29 00 23.5 163.2 992 45 3 Image Chart
1994 8 29 06 24.5 162.6 990 45 3 Image Chart
1994 8 29 12 25.6 161.8 990 45 3 Image Chart
1994 8 29 18 26.1 161.1 990 45 3 Image Chart
1994 8 30 00 26.5 160.3 990 45 3 Image Chart
1994 8 30 06 26.9 159.8 990 45 3 Image Chart
1994 8 30 12 27.3 159.3 985 50 4 Image Chart
1994 8 30 18 27.7 159.1 980 55 4 Image Chart
1994 8 31 00 28.2 159.0 975 60 4 Image Chart
1994 8 31 06 28.9 158.9 965 70 5 Image Chart
1994 8 31 12 29.6 158.9 960 75 5 Image Chart
1994 8 31 18 30.2 159.0 960 75 5 Image Chart
1994 9 1 00 30.9 159.2 965 70 5 Image Chart
1994 9 1 06 31.4 159.5 970 65 5 Image Chart
1994 9 1 12 31.9 160.0 975 60 4 Image Chart
1994 9 1 18 32.4 160.5 975 60 4 Image Chart
1994 9 2 00 32.9 160.8 980 55 4 Image Chart
1994 9 2 06 33.6 160.6 980 55 4 Image Chart
1994 9 2 12 34.3 160.8 985 50 4 Image Chart
1994 9 2 18 35.0 161.3 990 45 3 Image Chart
1994 9 3 00 35.8 162.0 992 45 3 Image Chart
1994 9 3 06 37.2 162.9 992 45 3 Image Chart
1994 9 3 12 38.6 163.7 990 45 3 Image Chart
1994 9 3 18 40.0 164.6 985 50 4 Image Chart
1994 9 4 00 41.2 165.4 980 55 4 Image Chart
1994 9 4 06 42.4 167.2 980 55 4 Image Chart
1994 9 4 12 45.0 170.0 980 0 6 Image Chart
1994 9 4 18 47.5 172.5 984 0 6 Image Chart
1994 9 5 00 52.0 173.0 988 0 6 Image Chart
1994 9 5 06 53.8 168.2 986 0 6 Image Chart
Japan Meteorological Agency Best Track Data | Correction Date : 1995-01-30
< Typhoon 199418 1994 Season Typhoon 199420 >

Help